Time;durP1;ratioP1;P1;durP2;ratioP2;P2;SDS_P1;SDS_P2;PMS_P1;PMS_P2;Temp;Humidity;BMP_temperature;BMP_pressure;BME280_temperature;BME280_humidity;BME280_pressure;Samples;Min_cycle;Max_cycle;Signal;HPM_P1;HPM_P2
2020/12/08 00:00:58;;;;;;;19.53;13.63;;;;;;;10.13;45.35;99950.50;4993743;28;20492;-79
2020/12/08 00:03:23;;;;;;;18.23;13.83;;;;;;;10.11;45.39;99958.19;4976585;28;20057;-79
2020/12/08 00:05:49;;;;;;;23.60;14.50;;;;;;;10.12;45.38;99954.34;4993745;28;20030;-79
2020/12/08 00:08:15;;;;;;;18.80;14.07;;;;;;;9.67;46.93;99954.84;4993628;28;20112;-79
2020/12/08 00:10:40;;;;;;;18.67;12.90;;;;;;;9.33;48.15;99956.53;4976088;28;20037;-78
2020/12/08 00:13:06;;;;;;;21.20;14.47;;;;;;;9.83;46.60;99958.66;4993668;28;20026;-78
2020/12/08 00:15:32;;;;;;;24.17;14.87;;;;;;;9.95;46.30;99956.03;4993577;28;20030;-79
2020/12/08 00:17:57;;;;;;;23.60;14.03;;;;;;;9.83;47.02;99958.66;4992543;28;20121;-78
2020/12/08 00:20:23;;;;;;;24.47;14.70;;;;;;;9.87;47.00;99962.31;4993080;28;20038;-78
2020/12/08 00:22:48;;;;;;;20.57;14.40;;;;;;;9.69;47.68;99963.50;4993386;28;20026;-79
2020/12/08 00:25:16;;;;;;;23.37;15.50;;;;;;;9.51;47.93;99946.38;4993405;28;20034;-79
2020/12/08 00:27:41;;;;;;;23.80;14.73;;;;;;;9.34;48.94;99957.31;4993351;28;20477;-79
2020/12/08 00:30:12;;;;;;;23.53;15.80;;;;;;;9.94;47.31;99968.06;4975985;28;20034;-78
2020/12/08 00:32:43;;;;;;;26.67;16.67;;;;;;;9.87;48.00;99967.78;4975987;28;20466;-78
2020/12/08 00:35:11;;;;;;;21.73;14.80;;;;;;;9.88;48.05;99961.19;4993302;28;20041;-79
2020/12/08 00:37:37;;;;;;;25.17;13.50;;;;;;;9.73;48.38;99962.53;4993100;28;20030;-78
2020/12/08 00:40:04;;;;;;;25.03;13.23;;;;;;;9.70;49.01;99959.66;4993104;28;20090;-78
2020/12/08 00:42:30;;;;;;;30.17;15.37;;;;;;;10.30;46.77;99955.91;4976022;28;20551;-79
2020/12/08 00:44:55;;;;;;;23.07;13.80;;;;;;;9.84;48.50;99959.44;4992668;28;20023;-79
2020/12/08 00:47:21;;;;;;;23.17;13.90;;;;;;;9.52;49.42;99958.91;4993115;28;20026;-78
2020/12/08 00:49:47;;;;;;;25.40;13.63;;;;;;;9.73;48.80;99953.53;4993148;28;20032;-78
2020/12/08 00:52:12;;;;;;;26.90;15.57;;;;;;;10.32;47.38;99961.81;4993293;28;20109;-78
2020/12/08 00:54:38;;;;;;;26.00;14.23;;;;;;;10.32;47.60;99964.56;4993058;28;20018;-78
2020/12/08 00:57:03;;;;;;;25.77;15.23;;;;;;;10.27;47.46;99964.72;4993175;28;20028;-78
2020/12/08 00:59:29;;;;;;;25.20;14.13;;;;;;;10.33;47.44;99962.63;4993032;28;20452;-78
2020/12/08 01:02:00;;;;;;;24.83;14.03;;;;;;;10.17;48.06;99959.63;4993019;28;20105;-79
2020/12/08 01:04:29;;;;;;;30.30;14.67;;;;;;;10.24;48.02;99960.72;4975686;28;20022;-79
2020/12/08 01:06:55;;;;;;;25.87;15.53;;;;;;;10.48;47.03;99957.38;4993061;28;20459;-78
2020/12/08 01:09:23;;;;;;;26.50;14.23;;;;;;;9.93;48.87;99946.56;4992836;28;20046;-78
2020/12/08 01:11:49;;;;;;;22.33;12.77;;;;;;;10.03;48.62;99938.00;4992987;28;20038;-78
2020/12/08 01:14:14;;;;;;;24.03;15.10;;;;;;;10.70;46.77;99937.16;4992934;28;20038;-78
2020/12/08 01:16:41;;;;;;;19.97;12.43;;;;;;;9.92;48.95;99942.25;4992964;28;20044;-78
2020/12/08 01:19:07;;;;;;;25.10;14.00;;;;;;;10.27;47.94;99948.34;4992988;28;20085;-78
2020/12/08 01:21:33;;;;;;;24.87;13.27;;;;;;;10.13;48.48;99947.78;4992941;28;20041;-78
2020/12/08 01:23:59;;;;;;;24.57;13.67;;;;;;;10.42;47.66;99945.03;4992906;28;20026;-78
2020/12/08 01:26:26;;;;;;;22.07;13.57;;;;;;;10.36;47.73;99937.41;4992857;28;20496;-78
2020/12/08 01:28:52;;;;;;;21.07;13.87;;;;;;;10.56;47.48;99942.06;4992831;28;20466;-79
2020/12/08 01:31:18;;;;;;;26.70;14.77;;;;;;;9.89;49.29;99949.13;4996636;28;20116;-78
2020/12/08 01:33:44;;;;;;;21.87;13.27;;;;;;;10.47;47.79;99938.59;4996570;28;20438;-78
2020/12/08 01:36:10;;;;;;;28.27;14.67;;;;;;;10.30;47.89;99939.50;4996579;28;20069;-79
2020/12/08 01:38:36;;;;;;;26.93;14.10;;;;;;;10.68;47.22;99933.94;4996184;28;20405;-78
2020/12/08 01:41:02;;;;;;;23.87;14.03;;;;;;;10.66;47.20;99930.75;4978894;28;20022;-79
2020/12/08 01:43:28;;;;;;;24.67;14.33;;;;;;;10.74;46.99;99934.56;4979163;28;20081;-78
2020/12/08 01:45:54;;;;;;;28.37;15.73;;;;;;;10.87;46.42;99940.88;4996279;28;20512;-78
2020/12/08 01:48:20;;;;;;;27.60;16.93;;;;;;;10.64;47.56;99941.19;4996263;28;20434;-79
2020/12/08 01:50:47;;;;;;;26.13;15.97;;;;;;;10.41;48.00;99935.25;4996180;28;20041;-78
2020/12/08 01:53:13;;;;;;;25.27;14.83;;;;;;;10.20;48.56;99937.09;4996092;28;20022;-78
2020/12/08 01:55:40;;;;;;;24.43;14.73;;;;;;;10.46;48.30;99935.06;4996091;28;20035;-78
2020/12/08 01:58:20;;;;;;;26.70;15.13;;;;;;;10.51;47.74;99928.63;4996031;28;20037;-78
2020/12/08 02:00:49;;;;;;;30.37;16.40;;;;;;;10.73;47.35;99941.13;4996095;28;20030;-78
2020/12/08 02:03:16;;;;;;;29.63;13.30;;;;;;;10.45;48.12;99952.59;4995978;28;20034;-79
2020/12/08 02:05:42;;;;;;;26.40;15.97;;;;;;;10.74;47.26;99948.22;4996019;28;20031;-78
2020/12/08 02:08:08;;;;;;;30.20;16.87;;;;;;;10.53;47.65;99949.00;4995948;28;20030;-78
2020/12/08 02:10:34;;;;;;;27.20;16.50;;;;;;;10.56;47.66;99942.88;4978256;28;20092;-78
2020/12/08 02:13:01;;;;;;;24.70;16.67;;;;;;;10.59;47.67;99949.63;4995720;28;20041;-79
2020/12/08 02:15:30;;;;;;;30.57;17.17;;;;;;;10.48;47.77;99951.13;4995675;28;20022;-78
2020/12/08 02:17:56;;;;;;;;;;;;;;;10.76;47.05;99956.88;4996249;28;20109;-79
2020/12/08 02:20:23;;;;;;;26.27;16.27;;;;;;;10.79;46.96;99948.00;4995706;28;19949;-79
2020/12/08 02:22:51;;;;;;;25.90;16.50;;;;;;;10.42;47.89;99946.97;4995687;28;20083;-78
2020/12/08 02:25:17;;;;;;;26.90;16.80;;;;;;;10.62;47.33;99953.59;4995808;28;20056;-78
2020/12/08 02:27:43;;;;;;;21.33;13.77;;;;;;;10.02;48.35;99948.13;4995761;28;20053;-79
2020/12/08 02:30:09;;;;;;;25.17;15.67;;;;;;;10.24;48.24;99954.47;4995450;28;20031;-78
2020/12/08 02:32:35;;;;;;;23.73;16.57;;;;;;;10.71;46.83;99957.06;4977997;28;20030;-78
2020/12/08 02:35:00;;;;;;;27.07;19.07;;;;;;;10.61;47.13;99952.00;4995427;28;20030;-79
2020/12/08 02:37:26;;;;;;;27.23;16.70;;;;;;;10.66;47.02;99954.56;4995491;28;20477;-78
2020/12/08 02:39:51;;;;;;;25.50;16.60;;;;;;;10.57;47.35;99960.84;4995179;28;20054;-78
2020/12/08 02:42:18;;;;;;;20.83;15.60;;;;;;;10.78;46.75;99949.94;4994525;28;20034;-79
2020/12/08 02:44:44;;;;;;;21.83;14.80;;;;;;;10.89;46.46;99946.81;4995281;28;20038;-78
2020/12/08 02:47:09;;;;;;;20.43;14.23;;;;;;;10.98;45.96;99937.41;4995448;28;20026;-78
2020/12/08 02:49:35;;;;;;;17.90;13.10;;;;;;;10.73;46.40;99931.03;4995348;28;20027;-78
2020/12/08 02:52:00;;;;;;;21.87;15.07;;;;;;;11.00;45.65;99923.41;4995411;28;20436;-78
2020/12/08 02:54:26;;;;;;;16.60;13.07;;;;;;;10.57;46.57;99933.53;4995048;28;20536;-78
2020/12/08 02:56:51;;;;;;;20.10;13.40;;;;;;;10.89;45.70;99925.75;4995282;28;20110;-78
2020/12/08 02:59:17;;;;;;;20.50;13.90;;;;;;;10.96;45.30;99917.81;4995082;28;20042;-78
2020/12/08 03:01:42;;;;;;;15.50;11.70;;;;;;;10.70;45.86;99920.75;4994894;28;20121;-78
2020/12/08 03:04:08;;;;;;;17.83;11.73;;;;;;;10.45;46.74;99925.28;4994834;28;20109;-78
2020/12/08 03:06:34;;;;;;;20.53;13.57;;;;;;;10.94;45.44;99913.81;4994874;28;20026;-79
2020/12/08 03:08:59;;;;;;;16.43;12.10;;;;;;;10.66;46.17;99924.50;4994728;28;20046;-78
2020/12/08 03:11:32;;;;;;;16.00;12.40;;;;;;;10.52;46.44;99932.94;4994901;28;20038;-78
2020/12/08 03:13:57;;;;;;;17.40;12.30;;;;;;;10.40;46.82;99933.66;4994700;28;20061;-78
2020/12/08 03:16:23;;;;;;;18.83;11.50;;;;;;;10.34;46.83;99931.44;4994671;28;20462;-78
2020/12/08 03:18:49;;;;;;;14.23;11.43;;;;;;;10.47;46.77;99939.41;4994690;28;20041;-78
2020/12/08 03:21:14;;;;;;;15.47;12.10;;;;;;;10.71;45.98;99925.09;4994769;28;20362;-78
2020/12/08 03:23:40;;;;;;;18.63;12.17;;;;;;;10.74;45.98;99934.56;4994716;28;20079;-78
2020/12/08 03:26:06;;;;;;;20.90;12.83;;;;;;;10.60;46.34;99942.22;4994447;28;20434;-78
2020/12/08 03:28:31;;;;;;;18.10;11.67;;;;;;;10.57;46.32;99939.00;4994425;28;20081;-79
2020/12/08 03:30:57;;;;;;;16.07;11.27;;;;;;;10.84;45.70;99940.41;4994259;28;20038;-78
2020/12/08 03:33:23;;;;;;;17.43;11.53;;;;;;;10.72;45.61;99932.13;4994318;28;20065;-78
2020/12/08 03:35:48;;;;;;;16.07;11.73;;;;;;;10.68;45.87;99955.00;4994143;28;20436;-78
2020/12/08 03:38:14;;;;;;;17.50;11.90;;;;;;;10.48;46.43;99956.59;4993772;28;20520;-79
2020/12/08 03:40:40;;;;;;;15.60;10.73;;;;;;;10.69;45.78;99960.13;4994230;28;20029;-79
2020/12/08 03:43:06;;;;;;;16.50;11.40;;;;;;;10.64;46.21;99956.78;4994009;28;20105;-79
2020/12/08 03:45:32;;;;;;;17.30;11.57;;;;;;;10.74;46.13;99946.28;4994149;28;20106;-79
2020/12/08 03:47:57;;;;;;;16.13;10.93;;;;;;;10.85;45.36;99949.41;4993912;28;20081;-78
2020/12/08 03:50:23;;;;;;;14.37;10.13;;;;;;;10.45;46.48;99954.53;4994012;28;20453;-78
2020/12/08 03:52:48;;;;;;;16.47;11.47;;;;;;;10.88;45.52;99948.72;4993898;28;20026;-79
2020/12/08 03:55:14;;;;;;;18.43;11.47;;;;;;;10.94;45.17;99944.66;4993959;28;20113;-78
2020/12/08 03:57:39;;;;;;;15.37;10.77;;;;;;;10.76;45.38;99949.47;4993900;28;20504;-78
2020/12/08 04:00:09;;;;;;;15.13;10.27;;;;;;;10.24;46.96;99946.28;4993814;28;20444;-78
2020/12/08 04:02:35;;;;;;;14.45;11.38;;;;;;;10.65;46.05;99951.00;4993789;28;20061;-78
2020/12/08 04:05:02;;;;;;;17.07;11.30;;;;;;;10.82;45.72;99950.09;4993797;28;20032;-78
2020/12/08 04:07:28;;;;;;;14.27;10.87;;;;;;;10.92;45.48;99949.69;4993664;28;20423;-78
2020/12/08 04:09:55;;;;;;;16.47;10.37;;;;;;;10.98;45.47;99937.41;4993679;28;20034;-78
2020/12/08 04:12:21;;;;;;;16.10;10.13;;;;;;;11.18;44.86;99940.44;4993594;28;20038;-78
2020/12/08 04:14:46;;;;;;;15.43;10.13;;;;;;;11.01;45.50;99931.25;4993646;28;20382;-78
2020/12/08 04:17:17;;;;;;;13.90;10.30;;;;;;;11.15;45.09;99935.66;4976178;28;20022;-78
2020/12/08 04:19:43;;;;;;;13.23;9.47;;;;;;;11.03;45.41;99923.56;4993606;28;20041;-78
2020/12/08 04:22:09;;;;;;;16.63;9.67;;;;;;;11.43;44.42;99917.50;4993750;28;20501;-78
2020/12/08 04:24:34;;;;;;;14.13;9.50;;;;;;;11.05;45.81;99921.28;4993469;28;20037;-78
2020/12/08 04:27:00;;;;;;;14.70;9.63;;;;;;;11.13;45.33;99918.78;4993659;28;20026;-78
2020/12/08 04:29:26;;;;;;;11.50;8.83;;;;;;;11.35;44.78;99929.34;4993390;28;20077;-78
2020/12/08 04:31:51;;;;;;;12.20;8.90;;;;;;;11.30;44.99;99929.56;4975850;28;20393;-78
2020/12/08 04:34:17;;;;;;;13.30;9.20;;;;;;;11.43;44.48;99925.72;4993434;28;20037;-78
2020/12/08 04:36:42;;;;;;;12.00;8.33;;;;;;;11.15;45.49;99921.97;4993566;28;20026;-79
2020/12/08 04:39:08;;;;;;;13.70;9.37;;;;;;;11.60;44.30;99930.19;4993099;28;20125;-78
2020/12/08 04:41:34;;;;;;;11.37;8.17;;;;;;;11.44;44.65;99927.31;4993226;28;20036;-78
2020/12/08 04:44:02;;;;;;;11.33;9.40;;;;;;;11.53;44.31;99925.28;4992990;28;20026;-78
2020/12/08 04:46:28;;;;;;;11.77;8.10;;;;;;;11.26;45.35;99931.34;4993240;28;20385;-79
2020/12/08 04:48:54;;;;;;;13.07;8.67;;;;;;;11.22;45.51;99936.69;4993292;28;20029;-78
2020/12/08 04:51:20;;;;;;;15.13;9.23;;;;;;;11.59;44.66;99939.56;4975698;28;20392;-79
2020/12/08 04:53:47;;;;;;;10.50;8.17;;;;;;;11.63;44.53;99943.97;4993224;28;20018;-78
2020/12/08 04:56:12;;;;;;;10.97;7.60;;;;;;;11.34;45.54;99944.16;4975737;28;20023;-78
2020/12/08 04:58:38;;;;;;;12.67;8.67;;;;;;;11.53;44.94;99941.69;4993135;28;20485;-78
2020/12/08 05:01:03;;;;;;;9.70;7.60;;;;;;;11.53;45.02;99949.09;4993154;28;20022;-78
2020/12/08 05:03:31;;;;;;;9.87;8.43;;;;;;;11.57;44.83;99950.84;4993067;28;20026;-79
2020/12/08 05:05:56;;;;;;;15.83;8.97;;;;;;;11.67;44.58;99955.88;4996459;28;20169;-78
2020/12/08 05:08:22;;;;;;;10.80;8.63;;;;;;;11.78;44.24;99955.41;4997012;28;20584;-78
2020/12/08 05:10:48;;;;;;;9.43;7.20;;;;;;;11.45;44.83;99953.53;4979466;28;20034;-78
2020/12/08 05:13:16;;;;;;;11.30;7.40;;;;;;;11.75;44.28;99958.84;4996967;28;20385;-78
2020/12/08 05:15:41;;;;;;;14.67;9.03;;;;;;;11.81;44.28;99949.31;4997014;28;20148;-78
2020/12/08 05:18:11;;;;;;;12.33;7.00;;;;;;;10.89;46.68;99960.50;4996979;28;20061;-78
2020/12/08 05:20:39;;;;;;;10.48;7.18;;;;;;;11.25;45.55;99957.91;4996900;28;20030;-78
2020/12/08 05:23:05;;;;;;;9.97;7.50;;;;;;;11.61;45.08;99957.22;4995422;28;20026;-78
2020/12/08 05:25:31;;;;;;;10.17;6.73;;;;;;;11.23;45.96;99956.66;4996721;28;20045;-78
2020/12/08 05:27:58;;;;;;;11.13;8.07;;;;;;;11.60;45.02;99955.63;4996754;28;20102;-79
2020/12/08 05:30:25;;;;;;;16.00;8.83;;;;;;;11.64;45.00;99948.34;4996441;28;20041;-78
2020/12/08 05:32:51;;;;;;;10.70;8.10;;;;;;;11.60;45.07;99954.81;4996655;28;20109;-78
2020/12/08 05:35:20;;;;;;;10.50;6.73;;;;;;;11.72;44.40;99951.31;4996581;28;20062;-78
2020/12/08 05:37:48;;;;;;;12.67;8.10;;;;;;;11.37;45.52;99952.47;4996472;28;20085;-79
2020/12/08 05:40:17;;;;;;;9.53;7.40;;;;;;;11.11;46.19;99958.22;4996255;28;20034;-78
2020/12/08 05:42:45;;;;;;;9.85;7.07;;;;;;;11.24;45.67;99958.25;4978719;28;20404;-78
2020/12/08 05:45:14;;;;;;;9.13;7.80;;;;;;;11.47;45.18;99962.19;4996372;28;20417;-83
2020/12/08 05:47:49;;;;;;;11.97;7.17;;;;;;;11.71;44.75;99953.25;4978967;28;20026;-78
2020/12/08 05:50:17;;;;;;;14.00;7.00;;;;;;;11.63;44.96;99954.94;4995577;28;20030;-78
2020/12/08 05:52:50;;;;;;;14.93;8.77;;;;;;;11.44;45.45;99959.34;4996292;28;20061;-78
2020/12/08 05:55:21;;;;;;;10.33;7.43;;;;;;;11.59;45.27;99956.75;4996111;28;20520;-78
2020/12/08 05:57:47;;;;;;;11.77;7.73;;;;;;;11.52;45.46;99953.78;4996427;28;20065;-78
2020/12/08 06:00:26;;;;;;;8.70;7.70;;;;;;;11.74;44.85;99965.47;4995477;28;20026;-78
2020/12/08 06:02:54;;;;;;;9.05;8.15;;;;;;;11.58;45.28;99960.63;4994760;28;20374;-78
2020/12/08 06:05:27;;;;;;;17.17;10.83;;;;;;;11.77;45.00;99968.31;4996244;28;20416;-78
2020/12/08 06:07:53;;;;;;;13.53;8.73;;;;;;;11.75;44.91;99980.75;4995945;28;20432;-78
2020/12/08 06:10:19;;;;;;;11.13;6.90;;;;;;;11.83;44.92;99977.13;4995527;28;20030;-79
2020/12/08 06:12:56;;;;;;;8.17;6.17;;;;;;;11.24;46.25;99966.44;4994684;28;20058;-79
2020/12/08 06:15:25;;;;;;;15.97;13.27;;;;;;;11.82;44.99;99975.53;4994252;28;20026;-78
2020/12/08 06:17:52;;;;;;;9.68;6.93;;;;;;;11.90;44.60;99969.16;4995181;28;20034;-80
2020/12/08 06:20:18;;;;;;;9.77;8.30;;;;;;;12.11;44.13;99964.41;4994276;28;20096;-80
2020/12/08 06:22:55;;;;;;;10.73;7.83;;;;;;;11.74;45.04;99968.19;4994952;28;20476;-79
2020/12/08 06:25:20;;;;;;;12.20;7.13;;;;;;;12.08;44.35;99956.06;4994553;28;20037;-80
2020/12/08 06:27:46;;;;;;;6.83;5.50;;;;;;;11.80;45.02;99964.09;4994454;28;20023;-78
2020/12/08 06:30:12;;;;;;;7.50;5.70;;;;;;;11.39;46.24;99968.56;4994620;28;20029;-79
2020/12/08 06:32:42;;;;;;;7.90;5.53;;;;;;;11.44;46.00;99973.81;4995345;28;20015;-79
2020/12/08 06:35:08;;;;;;;;;;;;;;;11.98;44.78;99971.00;4981926;28;20085;-80
2020/12/08 06:37:34;;;;;;;10.27;6.07;;;;;;;12.13;44.29;99975.00;4994986;28;19913;-80
2020/12/08 06:40:11;;;;;;;7.57;5.63;;;;;;;11.96;44.56;99981.50;4994665;28;20046;-78
2020/12/08 06:42:37;;;;;;;7.47;5.53;;;;;;;12.03;44.51;99979.00;4995258;28;20034;-78
2020/12/08 06:45:07;;;;;;;8.57;5.67;;;;;;;12.12;44.21;99976.94;4994138;28;20023;-78
2020/12/08 06:47:33;;;;;;;7.17;5.73;;;;;;;12.07;44.70;99976.38;4994685;28;20057;-79
2020/12/08 06:49:59;;;;;;;6.20;4.80;;;;;;;12.07;44.87;99985.38;4994504;28;20034;-77
2020/12/08 06:52:24;;;;;;;7.63;4.97;;;;;;;12.00;44.89;99978.88;4994074;28;20433;-80
2020/12/08 06:55:16;;;;;;;7.93;5.53;;;;;;;11.83;45.30;99982.63;4994650;28;20040;-79
2020/12/08 06:57:41;;;;;;;7.23;5.50;;;;;;;12.21;44.40;99987.78;4990493;28;20034;-80
2020/12/08 07:00:08;;;;;;;8.07;5.30;;;;;;;12.18;44.51;100002.97;4994044;28;20033;-77
2020/12/08 07:02:51;;;;;;;6.00;4.67;;;;;;;11.97;44.98;100002.25;4993807;28;20026;-79
2020/12/08 07:05:37;;;;;;;7.50;4.47;;;;;;;12.26;44.20;100000.47;4983779;28;20034;-79
2020/12/08 07:08:04;;;;;;;7.80;4.80;;;;;;;12.03;45.15;99992.69;4994672;28;20054;-78
2020/12/08 07:10:36;;;;;;;8.77;5.60;;;;;;;12.32;44.29;100002.63;4994725;28;20026;-78
2020/12/08 07:13:01;;;;;;;8.47;5.03;;;;;;;12.09;44.81;100004.19;4994844;28;20023;-79
2020/12/08 07:15:27;;;;;;;5.77;3.90;;;;;;;11.63;45.90;99993.25;4994677;28;20022;-78
2020/12/08 07:18:04;;;;;;;6.03;4.63;;;;;;;11.87;45.86;100013.66;4994950;28;20022;-78
2020/12/08 07:20:31;;;;;;;5.20;4.43;;;;;;;12.18;44.71;100013.94;4994511;28;20022;-78
2020/12/08 07:23:01;;;;;;;7.03;4.80;;;;;;;12.20;44.71;100008.09;4994616;28;20054;-78
2020/12/08 07:25:27;;;;;;;9.73;5.40;;;;;;;12.46;44.17;100014.03;4994563;28;20019;-79
2020/12/08 07:27:54;;;;;;;7.63;6.03;;;;;;;12.52;44.09;100013.81;4994219;28;20503;-78
2020/12/08 07:30:23;;;;;;;6.20;4.50;;;;;;;12.24;44.58;100025.44;4994379;28;20080;-78
2020/12/08 07:32:50;;;;;;;7.25;5.10;;;;;;;12.66;43.72;100022.47;4994423;28;20023;-78
2020/12/08 07:35:29;;;;;;;10.10;5.00;;;;;;;12.48;44.12;100019.19;4993423;28;20046;-78
2020/12/08 07:37:57;;;;;;;10.70;5.83;;;;;;;12.67;43.34;100016.66;4994069;28;20030;-77
2020/12/08 07:40:30;;;;;;;6.27;4.27;;;;;;;12.42;44.17;100013.13;4994234;28;20043;-76
2020/12/08 07:42:56;;;;;;;7.37;5.17;;;;;;;12.47;44.20;100020.34;4994215;28;20045;-76
2020/12/08 07:45:22;;;;;;;14.80;5.53;;;;;;;12.35;44.62;100014.84;4994171;28;20030;-76
2020/12/08 07:47:52;;;;;;;7.13;4.57;;;;;;;12.48;43.94;100022.72;4994125;28;20022;-76
2020/12/08 07:50:30;;;;;;;11.90;4.90;;;;;;;12.40;44.53;100012.69;4993736;28;20109;-79
2020/12/08 07:53:01;;;;;;;7.27;4.47;;;;;;;12.42;44.52;100021.34;4992700;28;20064;-77
2020/12/08 07:55:36;;;;;;;10.57;6.10;;;;;;;12.65;44.18;100029.09;4993482;28;20109;-76
2020/12/08 07:58:03;;;;;;;9.17;4.57;;;;;;;12.52;44.50;100028.31;4993890;28;20150;-77
2020/12/08 08:00:29;;;;;;;11.23;5.47;;;;;;;12.65;44.11;100032.66;4992823;28;20034;-76
2020/12/08 08:02:55;;;;;;;7.93;5.30;;;;;;;12.92;43.50;100033.88;4993831;28;20034;-78
2020/12/08 08:05:21;;;;;;;10.13;4.43;;;;;;;12.42;44.48;100018.63;4978102;28;20050;-78
2020/12/08 08:07:46;;;;;;;11.67;7.10;;;;;;;12.77;43.73;100016.19;4972897;28;20025;-78
2020/12/08 08:10:12;;;;;;;6.70;4.53;;;;;;;12.85;43.53;100024.63;4979670;28;20145;-78
2020/12/08 08:12:37;;;;;;;7.77;4.73;;;;;;;12.86;43.39;100028.97;4975407;28;20030;-79
2020/12/08 08:15:05;;;;;;;13.50;5.57;;;;;;;12.83;43.39;100032.38;4976501;28;20035;-79
2020/12/08 08:17:30;;;;;;;11.87;8.07;;;;;;;12.86;43.33;100035.25;4976981;28;20500;-78
2020/12/08 08:19:56;;;;;;;9.23;4.60;;;;;;;12.77;43.51;100034.56;4977308;28;20034;-80
2020/12/08 08:22:21;;;;;;;14.30;8.73;;;;;;;12.84;43.56;100042.22;4976502;28;20037;-79
2020/12/08 08:24:47;;;;;;;10.73;7.20;;;;;;;12.87;43.32;100038.78;4976051;28;20022;-79
2020/12/08 08:27:12;;;;;;;9.27;5.33;;;;;;;12.84;43.41;100043.00;4986848;28;20038;-78
2020/12/08 08:29:38;;;;;;;7.03;4.10;;;;;;;12.96;43.23;100045.75;4993344;28;20034;-79
2020/12/08 08:32:04;;;;;;;7.93;6.43;;;;;;;12.93;43.41;100051.94;4986108;28;20026;-79
2020/12/08 08:34:29;;;;;;;10.33;5.77;;;;;;;13.06;43.01;100050.75;4977591;28;20795;-79
2020/12/08 08:36:56;;;;;;;44.00;39.92;;;;;;;13.22;42.82;100055.53;4976140;28;20049;-79
2020/12/08 08:39:22;;;;;;;17.70;13.53;;;;;;;13.16;43.16;100057.72;4976609;28;20089;-79
2020/12/08 08:41:48;;;;;;;18.90;9.47;;;;;;;13.35;42.46;100059.84;4975772;28;20026;-79
2020/12/08 08:44:13;;;;;;;8.60;5.47;;;;;;;13.47;42.47;100053.53;4977328;28;20049;-79
2020/12/08 08:46:40;;;;;;;7.80;5.27;;;;;;;13.20;43.03;100058.63;4975741;28;20030;-79
2020/12/08 08:49:07;;;;;;;9.87;6.70;;;;;;;13.43;42.66;100058.91;4960204;28;20027;-79
2020/12/08 08:51:34;;;;;;;11.03;3.80;;;;;;;12.90;43.88;100062.78;4979022;28;20489;-78
2020/12/08 08:54:00;;;;;;;6.67;3.23;;;;;;;12.98;43.97;100059.91;4992467;28;20117;-79
2020/12/08 08:56:25;;;;;;;7.60;3.97;;;;;;;13.31;43.08;100056.22;4992508;28;20117;-78
2020/12/08 08:58:51;;;;;;;6.23;2.70;;;;;;;13.44;42.80;100067.94;4992621;28;20486;-79
2020/12/08 09:01:16;;;;;;;9.17;3.77;;;;;;;12.91;44.18;100059.69;4991277;28;20034;-79
2020/12/08 09:03:45;;;;;;;6.53;2.73;;;;;;;12.99;44.06;100061.50;4992597;28;20153;-79
2020/12/08 09:06:11;;;;;;;6.30;2.40;;;;;;;12.74;44.54;100058.00;4992242;28;20489;-80
2020/12/08 09:08:37;;;;;;;6.57;2.70;;;;;;;13.12;43.88;100061.47;4992552;28;20035;-79
2020/12/08 09:11:02;;;;;;;5.43;2.73;;;;;;;13.17;43.94;100067.53;4992468;28;20042;-78
2020/12/08 09:13:28;;;;;;;5.67;2.17;;;;;;;12.62;45.26;100066.22;4992857;28;20034;-79
2020/12/08 09:15:53;;;;;;;4.70;2.23;;;;;;;13.22;43.84;100070.03;4992515;28;20386;-79
2020/12/08 09:18:19;;;;;;;7.03;2.33;;;;;;;13.51;43.08;100076.38;4991638;28;20046;-78
2020/12/08 09:20:44;;;;;;;8.70;2.77;;;;;;;13.40;43.49;100075.28;4992595;28;20069;-79
2020/12/08 09:23:10;;;;;;;5.47;2.10;;;;;;;13.35;43.53;100083.75;4992435;28;20031;-79
2020/12/08 09:25:35;;;;;;;4.90;2.37;;;;;;;13.48;43.19;100085.31;4992083;28;20042;-79
2020/12/08 09:28:01;;;;;;;5.00;2.22;;;;;;;13.47;43.09;100086.47;4992867;28;20042;-79
2020/12/08 09:30:27;;;;;;;7.43;2.75;;;;;;;13.13;43.94;100096.00;4992757;28;20030;-79
2020/12/08 09:32:52;;;;;;;8.43;2.43;;;;;;;12.96;44.18;100089.63;4992550;28;20042;-79
2020/12/08 09:35:18;;;;;;;9.70;3.10;;;;;;;13.23;43.80;100088.13;4992788;28;20138;-79
2020/12/08 09:37:44;;;;;;;5.63;2.30;;;;;;;13.41;43.31;100094.13;4990831;28;20036;-78
2020/12/08 09:40:10;;;;;;;6.20;3.07;;;;;;;13.39;43.63;100099.19;4990815;28;20069;-78
2020/12/08 09:42:44;;;;;;;6.07;2.33;;;;;;;13.57;42.86;100088.72;4973161;28;20469;-78
2020/12/08 09:45:11;;;;;;;8.05;2.25;;;;;;;13.56;43.15;100107.13;4991168;28;20042;-78
2020/12/08 09:47:37;;;;;;;5.87;2.30;;;;;;;13.38;43.50;100100.31;4991158;28;20030;-78
2020/12/08 09:50:07;;;;;;;6.27;2.60;;;;;;;13.38;43.40;100105.03;4973564;28;20038;-78
2020/12/08 09:52:32;;;;;;;;;;;;;;;13.59;43.32;100111.09;4996423;28;20037;-78
2020/12/08 09:54:58;;;;;;;7.70;3.70;;;;;;;13.79;42.75;100112.88;4996077;28;19913;-78
2020/12/08 09:57:24;;;;;;;9.10;2.37;;;;;;;13.78;42.94;100114.03;4996096;28;20081;-77
2020/12/08 09:59:51;;;;;;;8.07;3.20;;;;;;;13.91;42.64;100108.50;4996032;28;20102;-78
2020/12/08 10:02:18;;;;;;;7.28;2.58;;;;;;;13.73;43.28;100111.50;4995846;28;20117;-77
2020/12/08 10:04:44;;;;;;;6.57;3.67;;;;;;;13.99;42.93;100124.81;4995855;28;20040;-79
2020/12/08 10:07:14;;;;;;;10.15;2.25;;;;;;;13.94;43.33;100124.25;4995923;28;20034;-79
2020/12/08 10:09:41;;;;;;;9.90;3.00;;;;;;;14.02;43.10;100123.31;4995947;28;20034;-79
2020/12/08 10:12:06;;;;;;;12.27;3.00;;;;;;;13.96;43.28;100125.50;4995343;28;20037;-79
2020/12/08 10:14:33;;;;;;;9.98;2.92;;;;;;;14.16;42.86;100135.47;4995340;28;20432;-79
2020/12/08 10:16:58;;;;;;;12.02;3.60;;;;;;;14.20;42.86;100141.06;4995740;28;20042;-79
2020/12/08 10:19:24;;;;;;;7.43;2.38;;;;;;;14.09;43.41;100129.00;4995725;28;20030;-79
2020/12/08 10:21:49;;;;;;;16.60;4.22;;;;;;;14.23;42.96;100143.13;4994839;28;20156;-79
2020/12/08 10:24:15;;;;;;;8.48;2.65;;;;;;;13.84;43.85;100145.59;4994696;28;20030;-79
2020/12/08 10:26:40;;;;;;;14.15;3.72;;;;;;;14.17;43.24;100147.25;4978448;28;20034;-79
2020/12/08 10:29:06;;;;;;;9.38;2.47;;;;;;;14.10;43.48;100147.06;4995782;28;20386;-79
2020/12/08 10:31:31;;;;;;;8.27;2.35;;;;;;;14.00;43.82;100144.84;4995416;28;20057;-79
2020/12/08 10:33:57;;;;;;;10.98;4.07;;;;;;;14.28;42.96;100142.88;4994627;28;20072;-79
2020/12/08 10:36:23;;;;;;;9.43;2.40;;;;;;;14.44;42.79;100146.44;4995597;28;20388;-79
2020/12/08 10:38:48;;;;;;;8.60;3.30;;;;;;;14.44;42.91;100143.69;4995057;28;20108;-79
2020/12/08 10:41:14;;;;;;;10.00;2.50;;;;;;;14.59;42.62;100153.13;4994504;28;20034;-79
2020/12/08 10:43:39;;;;;;;14.50;3.17;;;;;;;14.14;44.12;100150.72;4981330;28;20031;-79
2020/12/08 10:46:05;;;;;;;9.95;2.92;;;;;;;14.52;43.21;100147.44;4976254;28;20046;-79
2020/12/08 10:48:32;;;;;;;13.18;2.97;;;;;;;14.89;42.27;100134.22;4980541;28;20022;-79
2020/12/08 10:50:57;;;;;;;7.93;2.53;;;;;;;14.96;42.23;100142.66;4993100;28;20034;-79
2020/12/08 10:53:23;;;;;;;12.98;2.83;;;;;;;15.08;41.78;100138.19;4994892;28;20027;-79
2020/12/08 10:55:48;;;;;;;9.82;2.78;;;;;;;15.15;41.80;100146.59;4994512;28;20030;-79
2020/12/08 10:58:14;;;;;;;10.40;2.38;;;;;;;14.53;43.35;100157.28;4994907;28;20035;-79
2020/12/08 11:00:40;;;;;;;14.52;3.42;;;;;;;14.76;42.86;100156.66;4994998;28;20054;-79
2020/12/08 11:03:05;;;;;;;9.25;2.20;;;;;;;14.49;43.39;100158.34;4993434;28;20034;-78
2020/12/08 11:05:32;;;;;;;11.35;3.25;;;;;;;14.83;43.00;100140.34;4994854;28;20030;-79
2020/12/08 11:07:57;;;;;;;12.85;3.03;;;;;;;15.25;42.24;100159.81;4994500;28;20034;-79
2020/12/08 11:10:23;;;;;;;9.40;2.30;;;;;;;15.48;41.43;100166.22;4993815;28;20088;-79
2020/12/08 11:12:48;;;;;;;9.52;2.72;;;;;;;15.62;41.30;100170.47;4994948;28;20073;-79
2020/12/08 11:15:14;;;;;;;12.38;2.38;;;;;;;15.85;40.83;100168.63;4994270;28;20109;-79
2020/12/08 11:17:41;;;;;;;17.02;2.55;;;;;;;15.82;40.85;100169.34;4994679;28;20030;-79
2020/12/08 11:20:07;;;;;;;8.20;1.77;;;;;;;15.73;41.26;100166.03;4973268;28;20121;-78
2020/12/08 11:22:33;;;;;;;11.52;2.40;;;;;;;15.63;41.63;100172.88;4976981;28;20468;-78